Airfield :
LOGIN :

Register | Disclaimer

   EN    FR    IT 

 










Legend :    VFR   Marginal VFR   IFR   Intensive IFR   Very Intensive IFR
Visi :
Ceiling :
>= 8 km
>= 3000ft
5 to 8 km
1000 to 3000 ft
1500m to 5 km
500 to 1000 ft
800 to 1500m
200 to 500 ft
< 800m
< 200 ft
Symbols :   Thunderstorms  Fog  Heavy snow  Heavy precipitations  Wind > 20 kt
SIGMETs :     Misc.  Thunderstorms  Icing  Turbulence  Mountain Waves  Volcanic Ashes







- Airport Elevation : 776 ft
- IATA code : RMS


ETAR - Ramstein Air Base

CURRENT METAR :
  • 142156Z AUTO 00000KT 9999 CLR 15/15 A3011 RMK AO2 SLP194 T01450145 $

EXPIRED METARs :
  • 142056Z AUTO 00000KT 9999 CLR 15/15 A3010 RMK AO2 SLP191 T01480146 52017 $
  • 141956Z AUTO 00000KT 9999 CLR 17/15 A3009 RMK AO2 SLP187 T01690152 $

TAF TAF ETAR
Valid from the 14 at 18:00 until the 16 at 00:00 UTC


141802Z 1418/1524 27006KT 9999 SCT050 QNH3004INS
BECMG 1423/1424 VRB06KT 6000 BR BKN020 QNH3008INS
BECMG 1505/1506 27006KT 9999 NSW SCT025 BKN050 QNH3014INS
BECMG 1508/1509 27009KT 9999 BKN030 QNH3012INS
BECMG 1518/1519 VRB06KT 9999 SCT050 QNH3009INS TX24/1515Z TN12/1503Z
No reported NOTAMs for that airfield.



MET'MAP, your aeronautical weather chart ! - Copyright ORBIFLY December 2007 - Disclaimer

ORBIFLY MET'MAP TEAM :

Programming & Development : Alexandra Zaïnal
Concept & Development : Baudouin d'Aumeries
Co-Development & Prog : Marc-Olivier Méhu
Technical & hardware support : Manuel Goepfert

Contact : metmap@orbifly.com




SOURCES & CREDITS :

   NOAA